sensor_id;sensor_type;location;lat;lon;timestamp;P1;durP1;ratioP1;P2;durP2;ratioP2
62024;SDS011;47978;49.118;12.146;2024-01-30T00:00:14;10.55;;;5.45;;
62024;SDS011;47978;49.118;12.146;2024-01-30T00:04:16;27.70;;;13.18;;
62024;SDS011;47978;49.118;12.146;2024-01-30T00:08:18;21.83;;;9.97;;
62024;SDS011;47978;49.118;12.146;2024-01-30T00:12:21;10.73;;;5.72;;
62024;SDS011;47978;49.118;12.146;2024-01-30T00:16:23;8.55;;;5.93;;
62024;SDS011;47978;49.118;12.146;2024-01-30T00:20:25;58.10;;;52.45;;
62024;SDS011;47978;49.118;12.146;2024-01-30T00:24:27;68.28;;;61.92;;
62024;SDS011;47978;49.118;12.146;2024-01-30T00:28:29;53.42;;;48.38;;
62024;SDS011;47978;49.118;12.146;2024-01-30T00:32:31;18.02;;;16.13;;
62024;SDS011;47978;49.118;12.146;2024-01-30T00:36:32;10.60;;;7.75;;
62024;SDS011;47978;49.118;12.146;2024-01-30T00:40:34;60.15;;;54.90;;
62024;SDS011;47978;49.118;12.146;2024-01-30T00:44:37;96.00;;;87.43;;
62024;SDS011;47978;49.118;12.146;2024-01-30T00:48:38;18.13;;;16.50;;
62024;SDS011;47978;49.118;12.146;2024-01-30T00:52:40;10.25;;;5.03;;
62024;SDS011;47978;49.118;12.146;2024-01-30T00:56:41;17.13;;;10.85;;
62024;SDS011;47978;49.118;12.146;2024-01-30T01:00:44;12.18;;;8.48;;
62024;SDS011;47978;49.118;12.146;2024-01-30T01:04:46;24.15;;;21.83;;
62024;SDS011;47978;49.118;12.146;2024-01-30T01:08:48;27.05;;;24.52;;
62024;SDS011;47978;49.118;12.146;2024-01-30T01:12:49;17.10;;;15.25;;
62024;SDS011;47978;49.118;12.146;2024-01-30T01:16:52;59.25;;;53.42;;
62024;SDS011;47978;49.118;12.146;2024-01-30T01:20:54;84.50;;;77.10;;
62024;SDS011;47978;49.118;12.146;2024-01-30T01:24:55;132.07;;;121.15;;
62024;SDS011;47978;49.118;12.146;2024-01-30T01:28:57;141.45;;;129.32;;
62024;SDS011;47978;49.118;12.146;2024-01-30T01:33:00;83.55;;;76.68;;
62024;SDS011;47978;49.118;12.146;2024-01-30T01:37:01;32.90;;;30.30;;
62024;SDS011;47978;49.118;12.146;2024-01-30T01:41:03;118.40;;;108.57;;
62024;SDS011;47978;49.118;12.146;2024-01-30T01:45:05;113.70;;;102.00;;
62024;SDS011;47978;49.118;12.146;2024-01-30T01:49:08;26.77;;;24.52;;
62024;SDS011;47978;49.118;12.146;2024-01-30T01:53:10;44.90;;;40.35;;
62024;SDS011;47978;49.118;12.146;2024-01-30T01:57:13;281.40;;;257.00;;
62024;SDS011;47978;49.118;12.146;2024-01-30T02:01:14;335.00;;;305.05;;
62024;SDS011;47978;49.118;12.146;2024-01-30T02:05:21;187.95;;;171.43;;
62024;SDS011;47978;49.118;12.146;2024-01-30T02:09:23;303.90;;;277.80;;
62024;SDS011;47978;49.118;12.146;2024-01-30T02:17:26;132.48;;;121.80;;
62024;SDS011;47978;49.118;12.146;2024-01-30T02:21:29;167.40;;;153.90;;
62024;SDS011;47978;49.118;12.146;2024-01-30T02:29:32;261.50;;;239.30;;
62024;SDS011;47978;49.118;12.146;2024-01-30T02:33:34;267.90;;;244.40;;
62024;SDS011;47978;49.118;12.146;2024-01-30T02:37:37;296.60;;;270.50;;
62024;SDS011;47978;49.118;12.146;2024-01-30T02:45:40;298.30;;;271.20;;
62024;SDS011;47978;49.118;12.146;2024-01-30T02:49:41;304.90;;;278.40;;
62024;SDS011;47978;49.118;12.146;2024-01-30T02:53:44;310.00;;;281.90;;
62024;SDS011;47978;49.118;12.146;2024-01-30T02:57:46;325.90;;;294.50;;
62024;SDS011;47978;49.118;12.146;2024-01-30T03:05:49;347.00;;;314.10;;
62024;SDS011;47978;49.118;12.146;2024-01-30T03:21:56;343.30;;;310.60;;
62024;SDS011;47978;49.118;12.146;2024-01-30T03:25:59;364.80;;;329.90;;
62024;SDS011;47978;49.118;12.146;2024-01-30T03:34:02;347.10;;;314.00;;
62024;SDS011;47978;49.118;12.146;2024-01-30T03:38:04;333.20;;;301.55;;
62024;SDS011;47978;49.118;12.146;2024-01-30T03:42:07;335.40;;;301.85;;
62024;SDS011;47978;49.118;12.146;2024-01-30T03:46:08;378.30;;;341.10;;
62024;SDS011;47978;49.118;12.146;2024-01-30T03:58:14;350.00;;;305.70;;
62024;SDS011;47978;49.118;12.146;2024-01-30T04:02:16;45.83;;;16.08;;
62024;SDS011;47978;49.118;12.146;2024-01-30T04:06:17;35.90;;;19.20;;
62024;SDS011;47978;49.118;12.146;2024-01-30T04:10:19;39.30;;;22.60;;
62024;SDS011;47978;49.118;12.146;2024-01-30T04:14:22;43.40;;;21.70;;
62024;SDS011;47978;49.118;12.146;2024-01-30T04:18:23;32.25;;;14.50;;
62024;SDS011;47978;49.118;12.146;2024-01-30T04:22:25;27.45;;;12.82;;
62024;SDS011;47978;49.118;12.146;2024-01-30T04:26:27;75.72;;;27.83;;
62024;SDS011;47978;49.118;12.146;2024-01-30T04:30:29;86.32;;;25.63;;
62024;SDS011;47978;49.118;12.146;2024-01-30T04:34:31;199.82;;;55.60;;
62024;SDS011;47978;49.118;12.146;2024-01-30T04:38:33;298.87;;;71.13;;
62024;SDS011;47978;49.118;12.146;2024-01-30T04:42:34;125.75;;;32.83;;
62024;SDS011;47978;49.118;12.146;2024-01-30T04:46:37;59.25;;;19.88;;
62024;SDS011;47978;49.118;12.146;2024-01-30T04:50:39;57.42;;;22.60;;
62024;SDS011;47978;49.118;12.146;2024-01-30T04:54:40;40.97;;;17.02;;
62024;SDS011;47978;49.118;12.146;2024-01-30T04:58:42;40.60;;;16.55;;
62024;SDS011;47978;49.118;12.146;2024-01-30T05:06:46;22.30;;;11.98;;
62024;SDS011;47978;49.118;12.146;2024-01-30T05:10:47;26.05;;;14.10;;
62024;SDS011;47978;49.118;12.146;2024-01-30T05:14:49;25.50;;;14.00;;
62024;SDS011;47978;49.118;12.146;2024-01-30T05:18:52;18.33;;;10.50;;
62024;SDS011;47978;49.118;12.146;2024-01-30T05:22:54;40.17;;;14.07;;
62024;SDS011;47978;49.118;12.146;2024-01-30T05:26:55;25.70;;;14.20;;
62024;SDS011;47978;49.118;12.146;2024-01-30T05:30:57;22.77;;;11.65;;
62024;SDS011;47978;49.118;12.146;2024-01-30T05:35:00;33.00;;;16.05;;
62024;SDS011;47978;49.118;12.146;2024-01-30T05:39:01;108.30;;;96.60;;
62024;SDS011;47978;49.118;12.146;2024-01-30T05:43:05;31.70;;;13.95;;
62024;SDS011;47978;49.118;12.146;2024-01-30T05:47:07;157.40;;;141.70;;
62024;SDS011;47978;49.118;12.146;2024-01-30T05:51:10;279.45;;;253.85;;
62024;SDS011;47978;49.118;12.146;2024-01-30T05:55:12;248.50;;;227.00;;
62024;SDS011;47978;49.118;12.146;2024-01-30T05:59:13;269.80;;;246.30;;
62024;SDS011;47978;49.118;12.146;2024-01-30T06:07:18;36.55;;;32.92;;
62024;SDS011;47978;49.118;12.146;2024-01-30T06:11:19;145.55;;;132.45;;
62024;SDS011;47978;49.118;12.146;2024-01-30T06:15:21;13.63;;;8.27;;
62024;SDS011;47978;49.118;12.146;2024-01-30T06:19:22;204.90;;;189.00;;
62024;SDS011;47978;49.118;12.146;2024-01-30T06:31:28;412.50;;;375.80;;
62024;SDS011;47978;49.118;12.146;2024-01-30T06:35:30;211.70;;;194.60;;
62024;SDS011;47978;49.118;12.146;2024-01-30T06:39:33;346.80;;;318.50;;
62024;SDS011;47978;49.118;12.146;2024-01-30T06:47:36;30.55;;;13.13;;
62024;SDS011;47978;49.118;12.146;2024-01-30T06:51:37;29.58;;;14.05;;
62024;SDS011;47978;49.118;12.146;2024-01-30T06:55:40;27.40;;;12.63;;
62024;SDS011;47978;49.118;12.146;2024-01-30T06:59:42;28.95;;;19.80;;
62024;SDS011;47978;49.118;12.146;2024-01-30T07:03:43;338.80;;;308.70;;
62024;SDS011;47978;49.118;12.146;2024-01-30T07:07:45;34.27;;;18.97;;
62024;SDS011;47978;49.118;12.146;2024-01-30T07:11:48;27.52;;;13.13;;
62024;SDS011;47978;49.118;12.146;2024-01-30T07:23:52;330.90;;;301.60;;
62024;SDS011;47978;49.118;12.146;2024-01-30T07:40:00;436.00;;;392.40;;
62024;SDS011;47978;49.118;12.146;2024-01-30T07:44:04;55.33;;;30.52;;
62024;SDS011;47978;49.118;12.146;2024-01-30T07:48:06;239.30;;;175.70;;
62024;SDS011;47978;49.118;12.146;2024-01-30T07:52:07;122.60;;;102.50;;
62024;SDS011;47978;49.118;12.146;2024-01-30T07:56:09;36.33;;;17.35;;
62024;SDS011;47978;49.118;12.146;2024-01-30T08:00:13;34.58;;;19.08;;
62024;SDS011;47978;49.118;12.146;2024-01-30T08:04:15;31.10;;;22.73;;
62024;SDS011;47978;49.118;12.146;2024-01-30T08:08:17;118.68;;;99.55;;
62024;SDS011;47978;49.118;12.146;2024-01-30T08:12:18;232.60;;;198.40;;
62024;SDS011;47978;49.118;12.146;2024-01-30T08:16:21;278.80;;;249.10;;
62024;SDS011;47978;49.118;12.146;2024-01-30T08:20:23;216.80;;;185.80;;
62024;SDS011;47978;49.118;12.146;2024-01-30T08:24:24;211.05;;;183.10;;
62024;SDS011;47978;49.118;12.146;2024-01-30T08:28:26;300.40;;;267.90;;
62024;SDS011;47978;49.118;12.146;2024-01-30T08:32:29;320.10;;;286.30;;
62024;SDS011;47978;49.118;12.146;2024-01-30T08:44:34;235.90;;;198.75;;
62024;SDS011;47978;49.118;12.146;2024-01-30T08:48:37;242.45;;;205.45;;
62024;SDS011;47978;49.118;12.146;2024-01-30T08:52:39;280.60;;;232.00;;
62024;SDS011;47978;49.118;12.146;2024-01-30T09:00:42;352.20;;;315.90;;
62024;SDS011;47978;49.118;12.146;2024-01-30T09:04:45;337.30;;;295.80;;
62024;SDS011;47978;49.118;12.146;2024-01-30T09:08:46;358.10;;;318.60;;
62024;SDS011;47978;49.118;12.146;2024-01-30T09:12:48;408.50;;;363.65;;
62024;SDS011;47978;49.118;12.146;2024-01-30T09:16:49;195.50;;;154.60;;
62024;SDS011;47978;49.118;12.146;2024-01-30T09:20:52;327.95;;;289.30;;
62024;SDS011;47978;49.118;12.146;2024-01-30T09:28:55;399.30;;;356.30;;
62024;SDS011;47978;49.118;12.146;2024-01-30T09:32:57;407.45;;;362.60;;
62024;SDS011;47978;49.118;12.146;2024-01-30T09:37:00;370.10;;;331.10;;
62024;SDS011;47978;49.118;12.146;2024-01-30T09:41:03;357.90;;;320.00;;
62024;SDS011;47978;49.118;12.146;2024-01-30T09:49:14;373.70;;;333.10;;
62024;SDS011;47978;49.118;12.146;2024-01-30T10:13:32;424.50;;;365.30;;
62024;SDS011;47978;49.118;12.146;2024-01-30T10:37:46;378.70;;;322.60;;
62024;SDS011;47978;49.118;12.146;2024-01-30T10:49:59;393.70;;;331.80;;
62024;SDS011;47978;49.118;12.146;2024-01-30T10:58:04;366.30;;;325.00;;
62024;SDS011;47978;49.118;12.146;2024-01-30T11:22:24;463.40;;;361.40;;
62024;SDS011;47978;49.118;12.146;2024-01-30T11:34:32;414.70;;;337.30;;
62024;SDS011;47978;49.118;12.146;2024-01-30T11:46:39;428.10;;;330.80;;
62024;SDS011;47978;49.118;12.146;2024-01-30T15:24:41;465.40;;;349.80;;
62024;SDS011;47978;49.118;12.146;2024-01-30T15:32:45;13.07;;;8.43;;
62024;SDS011;47978;49.118;12.146;2024-01-30T15:48:52;420.70;;;349.90;;
62024;SDS011;47978;49.118;12.146;2024-01-30T15:56:56;436.65;;;358.75;;
62024;SDS011;47978;49.118;12.146;2024-01-30T16:37:15;489.80;;;435.90;;
62024;SDS011;47978;49.118;12.146;2024-01-30T16:49:20;505.10;;;451.00;;
62024;SDS011;47978;49.118;12.146;2024-01-30T16:53:23;492.70;;;439.90;;
62024;SDS011;47978;49.118;12.146;2024-01-30T18:22:01;519.90;;;440.10;;
62024;SDS011;47978;49.118;12.146;2024-01-30T18:50:15;531.10;;;445.80;;
62024;SDS011;47978;49.118;12.146;2024-01-30T19:42:52;479.80;;;422.90;;
62024;SDS011;47978;49.118;12.146;2024-01-30T19:50:56;411.20;;;368.60;;
62024;SDS011;47978;49.118;12.146;2024-01-30T19:59:00;629.45;;;474.05;;
62024;SDS011;47978;49.118;12.146;2024-01-30T20:03:02;466.90;;;404.20;;
62024;SDS011;47978;49.118;12.146;2024-01-30T20:07:05;505.40;;;421.50;;
62024;SDS011;47978;49.118;12.146;2024-01-30T20:11:13;493.90;;;440.80;;
62024;SDS011;47978;49.118;12.146;2024-01-30T20:15:15;467.60;;;417.60;;
62024;SDS011;47978;49.118;12.146;2024-01-30T20:31:23;512.80;;;457.90;;
62024;SDS011;47978;49.118;12.146;2024-01-30T20:35:25;511.40;;;456.10;;
62024;SDS011;47978;49.118;12.146;2024-01-30T22:12:16;528.50;;;439.80;;
62024;SDS011;47978;49.118;12.146;2024-01-30T22:32:26;29.23;;;15.10;;
62024;SDS011;47978;49.118;12.146;2024-01-30T23:32:52;512.90;;;399.80;;
62024;SDS011;47978;49.118;12.146;2024-01-30T23:40:57;295.10;;;238.00;;
62024;SDS011;47978;49.118;12.146;2024-01-30T23:44:58;500.70;;;426.10;;
